Time;durP1;ratioP1;P1;durP2;ratioP2;P2;SDS_P1;SDS_P2;PMS_P1;PMS_P2;Temp;Humidity;BMP_temperature;BMP_pressure;BME280_temperature;BME280_humidity;BME280_pressure;Samples;Min_cycle;Max_cycle;Signal;HPM_P1;HPM_P2
2022/07/01 00:00:07;;;;;;;88.88;37.13;;;;;;;13.61;100.00;101439.31;4996458;28;20389;-48
2022/07/01 00:02:32;;;;;;;81.65;37.75;;;;;;;13.53;100.00;101436.63;5015576;28;20137;-49
2022/07/01 00:04:58;;;;;;;80.30;37.45;;;;;;;13.49;100.00;101463.94;5017404;28;20044;-49
2022/07/01 00:07:23;;;;;;;82.80;36.45;;;;;;;13.42;100.00;101472.69;5016725;28;20581;-50
2022/07/01 00:09:49;;;;;;;79.22;35.92;;;;;;;13.33;100.00;101476.34;5015849;28;20052;-50
2022/07/01 00:12:15;;;;;;;68.57;33.80;;;;;;;13.28;100.00;101473.28;5017364;28;20029;-51
2022/07/01 00:14:41;;;;;;;69.10;33.05;;;;;;;13.22;100.00;101463.19;5016219;28;20021;-51
2022/07/01 00:17:07;;;;;;;66.85;32.85;;;;;;;13.18;100.00;101465.34;5017026;28;20053;-51
2022/07/01 00:19:32;;;;;;;69.60;31.25;;;;;;;13.13;100.00;101454.28;5016810;28;20448;-51
2022/07/01 00:21:58;;;;;;;66.40;31.60;;;;;;;13.06;100.00;101453.25;5010138;28;20117;-50
2022/07/01 00:24:24;;;;;;;68.63;30.52;;;;;;;13.05;100.00;101457.78;5018613;28;20393;-48
2022/07/01 00:26:49;;;;;;;63.58;29.00;;;;;;;13.01;100.00;101455.59;5020766;28;20087;-51
2022/07/01 00:29:14;;;;;;;59.58;29.13;;;;;;;12.97;100.00;101452.38;5019793;28;20107;-49
2022/07/01 00:31:40;;;;;;;61.03;27.30;;;;;;;12.97;100.00;101457.75;5020192;28;20447;-48
2022/07/01 00:34:05;;;;;;;55.28;26.92;;;;;;;12.94;100.00;101455.38;5020445;28;20021;-51
2022/07/01 00:36:30;;;;;;;55.80;26.60;;;;;;;12.91;100.00;101463.75;5019912;28;20029;-48
2022/07/01 00:38:55;;;;;;;54.85;26.70;;;;;;;12.86;100.00;101455.34;5010740;28;20392;-51
2022/07/01 00:41:21;;;;;;;47.55;24.98;;;;;;;12.89;100.00;101447.00;5014610;28;20088;-48
2022/07/01 00:43:47;;;;;;;53.13;25.33;;;;;;;12.84;100.00;101433.22;5020721;28;20014;-49
2022/07/01 00:46:12;;;;;;;56.03;25.95;;;;;;;12.84;100.00;101439.44;5001387;28;20029;-50
2022/07/01 00:48:38;;;;;;;54.05;25.13;;;;;;;12.92;100.00;101432.44;5020220;28;20032;-49
2022/07/01 00:51:04;;;;;;;53.35;26.02;;;;;;;12.93;100.00;101442.97;5019427;28;20172;-50
2022/07/01 00:53:29;;;;;;;50.60;24.73;;;;;;;12.98;100.00;101434.44;5016664;28;20029;-50
2022/07/01 00:55:55;;;;;;;54.05;26.50;;;;;;;13.01;100.00;101442.19;5019903;28;20070;-50
2022/07/01 00:58:20;;;;;;;54.97;25.17;;;;;;;13.06;100.00;101440.69;5019514;28;20373;-50
2022/07/01 01:00:46;;;;;;;66.35;27.00;;;;;;;13.07;100.00;101444.22;5019992;28;20021;-48
2022/07/01 01:03:11;;;;;;;62.22;27.73;;;;;;;13.09;100.00;101444.88;5019097;28;20025;-50
2022/07/01 01:05:37;;;;;;;69.20;30.52;;;;;;;13.08;100.00;101443.19;5018783;28;20133;-51
2022/07/01 01:08:03;;;;;;;67.07;30.55;;;;;;;13.15;100.00;101451.44;5019778;28;20022;-50
2022/07/01 01:10:30;;;;;;;84.22;32.00;;;;;;;13.15;100.00;101448.75;5020283;28;20099;-48
2022/07/01 01:12:56;;;;;;;86.32;32.67;;;;;;;13.16;100.00;101464.69;5019280;28;20029;-47
2022/07/01 01:15:22;;;;;;;85.95;35.20;;;;;;;13.17;100.00;101470.88;5019455;28;20029;-49
2022/07/01 01:17:48;;;;;;;84.50;34.40;;;;;;;13.21;100.00;101464.19;5019423;28;20040;-49
2022/07/01 01:20:17;;;;;;;92.65;35.10;;;;;;;13.16;100.00;101469.22;5009964;28;20026;-49
2022/07/01 01:22:48;;;;;;;91.20;37.53;;;;;;;13.11;100.00;101482.28;5013925;28;20078;-48
2022/07/01 01:25:13;;;;;;;99.03;39.15;;;;;;;13.09;100.00;101492.34;5018792;28;20144;-45
2022/07/01 01:27:39;;;;;;;101.00;39.10;;;;;;;13.09;100.00;101484.28;5019235;28;20048;-48
2022/07/01 01:30:06;;;;;;;96.75;38.78;;;;;;;13.14;100.00;101488.16;5018583;28;20364;-50
2022/07/01 01:32:31;;;;;;;96.20;38.10;;;;;;;13.19;100.00;101501.91;5018898;28;20029;-49
2022/07/01 01:34:57;;;;;;;96.80;37.97;;;;;;;13.24;100.00;101490.72;5018823;28;20516;-50
2022/07/01 01:37:22;;;;;;;92.70;37.47;;;;;;;13.25;100.00;101495.06;5018935;28;20025;-47
2022/07/01 01:39:47;;;;;;;90.80;36.00;;;;;;;13.27;100.00;101489.53;5017886;28;20037;-50
2022/07/01 01:42:13;;;;;;;98.32;39.25;;;;;;;13.24;100.00;101493.38;5000688;28;20029;-49
2022/07/01 01:44:38;;;;;;;89.57;36.00;;;;;;;13.27;100.00;101487.69;5018934;28;20039;-49
2022/07/01 01:47:04;;;;;;;97.70;37.72;;;;;;;13.31;100.00;101481.00;5018374;28;20365;-48
2022/07/01 01:49:29;;;;;;;93.53;35.78;;;;;;;13.34;100.00;101493.25;5019589;28;20025;-46
2022/07/01 01:51:57;;;;;;;86.47;36.28;;;;;;;13.33;100.00;101497.78;5015649;28;20120;-50
2022/07/01 01:54:22;;;;;;;93.28;35.50;;;;;;;13.28;100.00;101494.72;5017407;28;20022;-49
2022/07/01 01:56:48;;;;;;;89.15;35.65;;;;;;;13.28;100.00;101492.03;5019145;28;20028;-49
2022/07/01 01:59:13;;;;;;;85.07;34.55;;;;;;;13.30;100.00;101490.03;5018337;28;20025;-50
2022/07/01 02:01:38;;;;;;;79.30;33.55;;;;;;;13.26;100.00;101486.00;5018853;28;20104;-50
2022/07/01 02:04:04;;;;;;;82.00;34.85;;;;;;;13.28;100.00;101489.38;5018109;28;20029;-47
2022/07/01 02:06:29;;;;;;;75.80;33.97;;;;;;;13.27;100.00;101482.31;5018463;28;20621;-49
2022/07/01 02:08:54;;;;;;;82.70;34.88;;;;;;;13.24;100.00;101493.38;5018054;28;20128;-47
2022/07/01 02:11:19;;;;;;;81.78;34.65;;;;;;;13.26;100.00;101499.44;5017885;28;20106;-47
2022/07/01 02:13:45;;;;;;;83.75;34.92;;;;;;;13.30;100.00;101500.75;5018683;28;20453;-50
2022/07/01 02:16:11;;;;;;;79.43;33.78;;;;;;;13.27;100.00;101501.09;5018579;28;20033;-49
2022/07/01 02:18:37;;;;;;;82.18;34.92;;;;;;;13.25;100.00;101511.16;5017970;28;20029;-50
2022/07/01 02:21:02;;;;;;;94.15;38.55;;;;;;;13.20;100.00;101503.59;4990101;28;20404;-50
2022/07/01 02:23:29;;;;;;;84.63;35.55;;;;;;;13.25;100.00;101521.88;5016833;28;20038;-46
2022/07/01 02:25:54;;;;;;;91.47;38.00;;;;;;;13.22;100.00;101532.91;5017683;28;20025;-46
2022/07/01 02:28:20;;;;;;;91.35;38.00;;;;;;;13.16;100.00;101529.06;4988197;28;20485;-48
2022/07/01 02:30:45;;;;;;;88.68;37.17;;;;;;;13.16;100.00;101545.16;5018345;28;20033;-49
2022/07/01 02:33:11;;;;;;;91.20;37.80;;;;;;;13.09;100.00;101543.28;5018258;28;20040;-47
2022/07/01 02:35:38;;;;;;;91.90;38.28;;;;;;;13.17;100.00;101548.66;5016805;28;20102;-49
2022/07/01 02:38:05;;;;;;;91.57;36.60;;;;;;;13.16;100.00;101518.31;5017008;28;20127;-51
2022/07/01 02:40:30;;;;;;;87.30;37.58;;;;;;;13.16;100.00;101496.88;5017921;28;20029;-46
2022/07/01 02:42:56;;;;;;;93.30;37.70;;;;;;;13.15;100.00;101483.63;5017604;28;20088;-48
2022/07/01 02:45:21;;;;;;;94.05;39.75;;;;;;;13.19;100.00;101495.72;5017510;28;20061;-45
2022/07/01 02:47:47;;;;;;;94.85;38.88;;;;;;;13.22;100.00;101516.81;5018752;28;20013;-49
2022/07/01 02:50:14;;;;;;;97.13;38.55;;;;;;;13.26;100.00;101496.75;5016244;28;20029;-48
2022/07/01 02:52:40;;;;;;;89.55;37.40;;;;;;;13.24;100.00;101498.75;5004803;28;20021;-49
2022/07/01 02:55:08;;;;;;;96.18;39.63;;;;;;;13.20;100.00;101502.75;5017092;28;20025;-44
2022/07/01 02:57:34;;;;;;;86.70;37.75;;;;;;;13.19;100.00;101518.00;5017414;28;20033;-48
2022/07/01 02:59:59;;;;;;;96.38;39.17;;;;;;;13.18;100.00;101518.16;5018218;28;20071;-45
2022/07/01 03:02:24;;;;;;;100.80;40.78;;;;;;;13.18;100.00;101520.84;5017213;28;20440;-46
2022/07/01 03:04:52;;;;;;;96.10;41.25;;;;;;;13.18;100.00;101531.56;5016299;28;20028;-45
2022/07/01 03:07:18;;;;;;;101.75;40.83;;;;;;;13.15;100.00;101522.03;5016443;28;20053;-48
2022/07/01 03:09:44;;;;;;;100.82;39.92;;;;;;;13.20;100.00;101526.88;5017475;28;20056;-50
2022/07/01 03:12:25;;;;;;;106.50;41.38;;;;;;;13.26;100.00;101523.56;5017027;28;20064;-49
2022/07/01 03:14:51;;;;;;;95.90;38.58;;;;;;;13.32;100.00;101516.72;5017539;28;20033;-50
2022/07/01 03:17:18;;;;;;;95.95;41.05;;;;;;;13.30;100.00;101524.06;5016818;28;20029;-46
2022/07/01 03:19:43;;;;;;;108.88;43.65;;;;;;;13.32;100.00;101538.19;5007563;28;20527;-45
2022/07/01 03:22:09;;;;;;;114.28;44.45;;;;;;;13.29;100.00;101533.13;4999851;28;20033;-46
2022/07/01 03:24:35;;;;;;;121.10;45.13;;;;;;;13.25;100.00;101537.97;5016063;28;20033;-49
2022/07/01 03:27:00;;;;;;;123.30;46.22;;;;;;;13.18;100.00;101534.25;5018120;28;20406;-45
2022/07/01 03:29:25;;;;;;;132.32;48.05;;;;;;;13.18;100.00;101518.16;5017051;28;20032;-45
2022/07/01 03:31:50;;;;;;;127.47;45.72;;;;;;;13.16;100.00;101529.06;5006766;28;20154;-53
2022/07/01 03:34:16;;;;;;;114.75;43.97;;;;;;;13.12;100.00;101529.53;5017241;28;20567;-44
2022/07/01 03:36:41;;;;;;;112.18;44.03;;;;;;;13.11;100.00;101538.59;5016463;28;20033;-46
2022/07/01 03:39:06;;;;;;;115.15;42.83;;;;;;;13.13;100.00;101539.25;5016075;28;20043;-48
2022/07/01 03:41:31;;;;;;;120.05;44.67;;;;;;;13.09;100.00;101546.78;5010711;28;20033;-49
2022/07/01 03:43:57;;;;;;;113.35;42.70;;;;;;;13.11;100.00;101557.38;5009192;28;20689;-46
2022/07/01 03:46:22;;;;;;;118.95;42.65;;;;;;;13.14;100.00;101559.72;5010951;28;20037;-46
2022/07/01 03:48:47;;;;;;;112.60;42.33;;;;;;;13.17;100.00;101556.72;5016692;28;20079;-45
2022/07/01 03:51:12;;;;;;;98.70;40.28;;;;;;;13.20;100.00;101564.44;5015056;28;20040;-45
2022/07/01 03:56:21;;;;;;;95.80;38.15;;;;;;;13.15;100.00;101574.81;5021022;28;20180;-45
2022/07/01 03:58:47;;;;;;;93.03;38.38;;;;;;;13.15;100.00;101578.34;5021083;28;20694;-49
2022/07/01 04:01:12;;;;;;;92.45;37.22;;;;;;;13.11;100.00;101574.28;5020018;28;20017;-46
2022/07/01 04:03:37;;;;;;;90.50;37.08;;;;;;;13.13;100.00;101585.69;5012325;28;20038;-47
2022/07/01 04:06:03;;;;;;;87.95;37.67;;;;;;;13.08;100.00;101582.66;5021062;28;20514;-47
2022/07/01 04:08:28;;;;;;;100.63;39.40;;;;;;;13.09;100.00;101594.25;5001579;28;20163;-47
2022/07/01 04:10:55;;;;;;;87.75;36.42;;;;;;;13.05;100.00;101591.88;5020256;28;20021;-47
2022/07/01 04:13:20;;;;;;;89.00;35.42;;;;;;;13.04;100.00;101590.19;5019418;28;20025;-47
2022/07/01 04:15:46;;;;;;;83.50;36.63;;;;;;;13.02;100.00;101586.00;5004360;28;20469;-48
2022/07/01 04:18:12;;;;;;;85.38;35.80;;;;;;;13.04;100.00;101594.72;5000303;28;20509;-47
2022/07/01 04:20:37;;;;;;;81.13;34.83;;;;;;;13.00;100.00;101596.00;4982588;28;20098;-49
2022/07/01 04:23:02;;;;;;;89.05;35.40;;;;;;;12.99;100.00;101597.84;5000922;28;20026;-46
2022/07/01 04:25:29;;;;;;;85.40;35.97;;;;;;;13.00;100.00;101596.00;5000350;28;20069;-48
2022/07/01 04:27:56;;;;;;;83.43;36.25;;;;;;;13.00;100.00;101601.38;5000905;28;20048;-47
2022/07/01 04:30:21;;;;;;;83.88;36.47;;;;;;;13.00;100.00;101590.66;5000626;28;20456;-49
2022/07/01 04:32:46;;;;;;;83.50;34.28;;;;;;;13.01;100.00;101590.47;5003694;28;20099;-49
2022/07/01 04:35:13;;;;;;;88.05;36.15;;;;;;;13.01;100.00;101590.47;4999901;28;20021;-47
2022/07/01 04:37:39;;;;;;;86.63;36.65;;;;;;;12.97;100.00;101582.94;5005545;28;20068;-48
2022/07/01 04:40:06;;;;;;;93.72;36.63;;;;;;;12.93;100.00;101593.13;4999543;28;20388;-44
2022/07/01 04:42:31;;;;;;;89.72;36.47;;;;;;;12.94;100.00;101597.50;5001162;28;20034;-46
2022/07/01 04:44:56;;;;;;;93.03;37.70;;;;;;;12.93;100.00;101597.66;5000964;28;20070;-47
2022/07/01 04:47:23;;;;;;;92.88;38.30;;;;;;;12.89;100.00;101594.44;5000570;28;20508;-46
2022/07/01 04:49:48;;;;;;;95.95;38.83;;;;;;;12.88;100.00;101606.16;5002933;28;20180;-44
2022/07/01 04:52:13;;;;;;;95.85;38.22;;;;;;;12.90;100.00;101609.53;4995872;28;20105;-44
2022/07/01 04:54:39;;;;;;;94.78;37.55;;;;;;;12.86;100.00;101603.66;5000114;28;20018;-45
2022/07/01 04:57:04;;;;;;;85.90;36.47;;;;;;;12.88;100.00;101601.66;5000242;28;20079;-47
2022/07/01 04:59:29;;;;;;;82.60;35.63;;;;;;;12.88;100.00;101598.09;5001272;28;20170;-47
2022/07/01 05:01:55;;;;;;;89.68;36.28;;;;;;;12.90;100.00;101598.81;5000412;28;20065;-45
2022/07/01 05:04:20;;;;;;;86.90;37.03;;;;;;;12.88;100.00;101598.97;4999348;28;20018;-49
2022/07/01 05:06:45;;;;;;;83.32;36.25;;;;;;;12.86;100.00;101594.75;4999508;28;20034;-50
2022/07/01 05:09:11;;;;;;;95.28;36.83;;;;;;;12.86;100.00;101600.97;4980772;28;20397;-48
2022/07/01 05:11:36;;;;;;;88.63;36.45;;;;;;;12.87;100.00;101599.13;5000209;28;20068;-43
2022/07/01 05:14:02;;;;;;;81.35;35.42;;;;;;;12.91;100.00;101603.16;4999947;28;20117;-47
2022/07/01 05:16:27;;;;;;;77.80;34.38;;;;;;;12.99;100.00;101605.91;5000695;28;20080;-46
2022/07/01 05:24:20;;;;;;;72.22;32.63;;;;;;;12.99;100.00;101611.25;4997992;28;20428;-50
2022/07/01 05:26:45;;;;;;;73.38;32.35;;;;;;;13.03;100.00;101609.09;4999956;28;20053;-49
2022/07/01 05:29:11;;;;;;;80.25;34.13;;;;;;;13.05;100.00;101612.47;4999267;28;20030;-48
2022/07/01 05:31:36;;;;;;;73.35;32.03;;;;;;;13.06;100.00;101606.09;5002927;28;20441;-48
2022/07/01 05:34:02;;;;;;;67.97;29.48;;;;;;;13.07;100.00;101597.06;4998665;28;20508;-47
2022/07/01 05:36:27;;;;;;;69.05;29.17;;;;;;;13.06;100.00;101593.53;5001132;28;20062;-46
2022/07/01 05:38:53;;;;;;;64.97;30.77;;;;;;;13.04;100.00;101600.06;5019254;28;20096;-48
2022/07/01 05:41:18;;;;;;;71.63;30.23;;;;;;;13.02;100.00;101608.28;5010408;28;20038;-46
2022/07/01 05:43:44;;;;;;;77.03;30.65;;;;;;;13.02;100.00;101604.75;4999545;28;20262;-47
2022/07/01 05:46:09;;;;;;;64.43;29.65;;;;;;;13.07;100.00;101599.75;4999136;28;20038;-48
2022/07/01 05:48:34;;;;;;;68.38;29.20;;;;;;;13.08;100.00;101596.06;5010099;28;20030;-46
2022/07/01 05:51:00;;;;;;;68.13;28.88;;;;;;;13.02;100.00;101602.06;4998646;28;20028;-47
2022/07/01 05:53:25;;;;;;;63.95;27.52;;;;;;;13.04;100.00;101608.94;4998405;28;20521;-49
2022/07/01 05:55:50;;;;;;;62.80;27.90;;;;;;;13.06;100.00;101608.78;5004832;28;20068;-49
2022/07/01 05:58:16;;;;;;;60.63;27.90;;;;;;;13.04;100.00;101605.44;5005309;28;20080;-45
2022/07/01 06:00:42;;;;;;;61.60;28.00;;;;;;;13.04;100.00;101608.94;4998984;28;20133;-45
2022/07/01 06:03:13;;;;;;;58.22;26.73;;;;;;;13.09;100.00;101615.69;4999493;28;20859;-44
2022/07/01 06:05:40;;;;;;;63.22;27.13;;;;;;;13.31;100.00;101617.81;4997513;28;20037;-52
2022/07/01 06:08:08;;;;;;;58.53;26.67;;;;;;;13.55;100.00;101610.91;4998545;28;20665;-49
2022/07/01 06:10:34;;;;;;;54.10;24.50;;;;;;;13.71;100.00;101613.63;4998667;28;20085;-46
2022/07/01 06:13:00;;;;;;;56.00;26.65;;;;;;;13.87;100.00;101601.28;4999382;28;20384;-47
2022/07/01 06:15:26;;;;;;;58.60;25.45;;;;;;;13.90;100.00;101607.16;4998354;28;20026;-48
2022/07/01 06:17:52;;;;;;;49.13;23.75;;;;;;;13.87;100.00;101603.97;5015145;28;20059;-46
2022/07/01 06:20:17;;;;;;;48.85;24.52;;;;;;;13.91;100.00;101611.50;5017554;28;20040;-45
2022/07/01 06:22:43;;;;;;;55.78;24.98;;;;;;;13.93;100.00;101612.22;4993482;28;20113;-48
2022/07/01 06:25:09;;;;;;;53.50;23.23;;;;;;;13.99;100.00;101605.34;5014861;28;20061;-47
2022/07/01 06:27:42;;;;;;;50.00;23.92;;;;;;;14.06;100.00;101605.50;5014770;28;20480;-48
2022/07/01 06:30:09;;;;;;;49.08;23.58;;;;;;;14.06;100.00;101609.03;5012855;28;20117;-46
2022/07/01 06:32:34;;;;;;;53.58;23.60;;;;;;;14.05;100.00;101596.59;4998648;28;20482;-45
2022/07/01 06:34:59;;;;;;;51.83;24.10;;;;;;;14.01;100.00;101597.94;5014184;28;20110;-44
2022/07/01 06:37:25;;;;;;;50.22;24.02;;;;;;;14.01;100.00;101592.56;5015609;28;20120;-48
2022/07/01 06:39:50;;;;;;;52.08;22.70;;;;;;;14.13;100.00;101599.28;5014792;28;20531;-45
2022/07/01 06:42:16;;;;;;;49.08;21.20;;;;;;;14.19;100.00;101597.81;5016613;28;20135;-47
2022/07/01 06:44:41;;;;;;;47.45;21.50;;;;;;;14.26;100.00;101588.06;5016632;28;20527;-44
2022/07/01 06:47:06;;;;;;;47.25;21.10;;;;;;;14.35;100.00;101594.28;5014365;28;20392;-44
2022/07/01 06:49:32;;;;;;;46.45;19.52;;;;;;;14.52;100.00;101606.69;5016436;28;20108;-46
2022/07/01 06:51:57;;;;;;;44.20;19.80;;;;;;;14.62;100.00;101597.69;5012997;28;20033;-45
2022/07/01 06:54:22;;;;;;;47.42;20.75;;;;;;;14.79;100.00;101603.88;5015736;28;20114;-46
2022/07/01 06:56:48;;;;;;;39.40;19.08;;;;;;;14.84;100.00;101594.28;5015562;28;20028;-46
2022/07/01 06:59:14;;;;;;;41.92;18.98;;;;;;;15.00;100.00;101604.16;5017212;28;20029;-45
2022/07/01 07:01:40;;;;;;;46.00;18.98;;;;;;;15.12;100.00;101607.31;5004383;28;20014;-48
2022/07/01 07:04:06;;;;;;;40.17;18.00;;;;;;;15.30;100.00;101615.19;4997429;28;20366;-43
2022/07/01 07:06:31;;;;;;;38.45;17.02;;;;;;;15.39;100.00;101610.59;4997396;28;20392;-48
2022/07/01 07:08:56;;;;;;;33.00;17.65;;;;;;;15.50;100.00;101612.94;5006517;28;20022;-46
2022/07/01 07:11:21;;;;;;;36.58;15.27;;;;;;;15.56;100.00;101622.97;4996703;28;20021;-45
2022/07/01 07:13:47;;;;;;;35.53;14.40;;;;;;;15.59;100.00;101636.09;4997638;28;20022;-46
2022/07/01 07:16:12;;;;;;;32.03;13.90;;;;;;;15.67;100.00;101640.63;4994868;28;20415;-46
2022/07/01 07:18:38;;;;;;;39.00;15.60;;;;;;;15.92;100.00;101641.38;4998735;28;20468;-44
2022/07/01 07:21:03;;;;;;;33.60;13.90;;;;;;;16.17;100.00;101649.28;5001333;28;20155;-47
2022/07/01 07:23:29;;;;;;;24.35;11.02;;;;;;;16.07;100.00;101651.38;4996642;28;20045;-45
2022/07/01 07:25:54;;;;;;;33.50;12.38;;;;;;;15.79;100.00;101650.00;4994957;28;20025;-49
2022/07/01 07:28:20;;;;;;;27.33;11.60;;;;;;;15.54;100.00;101638.47;5004691;28;20021;-46
2022/07/01 07:30:45;;;;;;;23.45;12.00;;;;;;;15.61;100.00;101638.63;5009686;28;20086;-44
2022/07/01 07:33:11;;;;;;;33.58;11.57;;;;;;;15.72;100.00;101637.41;4996404;28;20032;-45
2022/07/01 07:35:37;;;;;;;26.38;11.77;;;;;;;15.87;100.00;101645.59;4996897;28;20084;-49
2022/07/01 07:38:02;;;;;;;30.48;11.85;;;;;;;15.97;100.00;101652.44;5001378;28;20069;-47
2022/07/01 07:40:27;;;;;;;23.98;9.60;;;;;;;16.16;100.00;101653.03;5007201;28;20026;-45
2022/07/01 07:42:53;;;;;;;23.77;8.88;;;;;;;16.11;100.00;101655.41;5002841;28;20475;-46
2022/07/01 07:45:18;;;;;;;20.98;8.50;;;;;;;15.96;100.00;101658.00;4993912;28;20030;-45
2022/07/01 07:47:48;;;;;;;20.35;8.68;;;;;;;15.96;100.00;101668.78;4998592;28;20026;-45
2022/07/01 07:50:14;;;;;;;15.40;7.57;;;;;;;15.91;100.00;101660.41;4996355;28;20044;-48
2022/07/01 07:52:40;;;;;;;16.15;7.60;;;;;;;15.87;100.00;101673.38;4994362;28;20520;-48
2022/07/01 07:55:07;;;;;;;17.05;7.05;;;;;;;15.86;100.00;101669.00;4995522;28;20375;-49
2022/07/01 07:57:33;;;;;;;15.88;6.15;;;;;;;15.89;100.00;101670.53;5008463;28;20080;-48
2022/07/01 07:59:59;;;;;;;11.85;6.07;;;;;;;15.96;100.00;101668.78;4996516;28;20076;-50
2022/07/01 08:02:24;;;;;;;12.73;6.55;;;;;;;16.18;100.00;101686.00;4988064;28;20065;-49
2022/07/01 08:04:50;;;;;;;15.38;6.28;;;;;;;16.37;100.00;101680.16;4994328;28;20350;-46
2022/07/01 08:07:15;;;;;;;11.57;5.47;;;;;;;16.53;100.00;101678.34;4995392;28;20453;-49
2022/07/01 08:09:45;;;;;;;17.77;6.35;;;;;;;16.70;100.00;101677.22;5000009;28;20088;-47
2022/07/01 08:12:11;;;;;;;18.60;6.60;;;;;;;17.00;100.00;101685.41;4996913;28;20085;-47
2022/07/01 08:14:36;;;;;;;11.13;5.70;;;;;;;17.18;99.50;101681.56;4992389;28;20029;-49
2022/07/01 08:17:02;;;;;;;14.73;5.43;;;;;;;17.34;96.84;101682.22;4995236;28;20448;-46
2022/07/01 08:19:27;;;;;;;11.93;5.22;;;;;;;17.54;97.21;101678.94;4992503;28;20032;-49
2022/07/01 08:21:52;;;;;;;11.82;4.68;;;;;;;17.63;91.25;101688.63;4995362;28;20117;-47
2022/07/01 08:24:18;;;;;;;16.13;4.25;;;;;;;17.49;90.11;101698.41;4996672;28;20052;-46
2022/07/01 08:26:43;;;;;;;12.20;4.25;;;;;;;17.57;92.41;101692.09;4996739;28;20311;-45
2022/07/01 08:29:08;;;;;;;9.02;4.10;;;;;;;17.70;91.83;101700.38;4996273;28;20022;-45
2022/07/01 08:31:33;;;;;;;12.18;3.80;;;;;;;17.86;89.54;101712.00;4996910;28;20356;-45
2022/07/01 08:33:59;;;;;;;11.40;3.67;;;;;;;17.82;86.77;101710.69;4992548;28;20113;-50
2022/07/01 08:36:24;;;;;;;12.38;3.55;;;;;;;17.87;90.83;101706.44;4996176;28;20407;-47
2022/07/01 08:38:50;;;;;;;7.10;3.28;;;;;;;17.92;87.85;101715.84;5008024;28;20033;-50
2022/07/01 08:41:18;;;;;;;11.60;3.38;;;;;;;17.74;86.05;101716.22;4995973;28;20038;-49
2022/07/01 08:43:44;;;;;;;4.90;3.20;;;;;;;17.79;88.71;101721.91;4995660;28;20353;-48
2022/07/01 08:46:09;;;;;;;9.35;3.10;;;;;;;17.66;83.77;101715.25;4999822;28;20109;-50
2022/07/01 08:48:35;;;;;;;11.05;3.88;;;;;;;17.73;84.97;101719.94;5000248;28;20048;-47
2022/07/01 08:51:04;;;;;;;11.50;3.22;;;;;;;17.82;85.29;101722.34;5000833;28;20034;-48
2022/07/01 08:53:31;;;;;;;12.48;4.00;;;;;;;17.88;87.42;101723.50;5007402;28;20496;-50
2022/07/01 08:58:41;;;;;;;12.15;3.55;;;;;;;18.25;85.57;101721.66;5006942;28;20063;-45
2022/07/01 09:01:15;;;;;;;12.50;2.90;;;;;;;18.20;82.38;101741.16;4997048;28;20422;-46
2022/07/01 09:03:41;;;;;;;8.75;3.15;;;;;;;17.96;82.61;101734.19;5008760;28;20555;-46
2022/07/01 09:06:18;;;;;;;10.40;3.83;;;;;;;17.51;81.29;101739.59;4989249;28;20030;-49
2022/07/01 09:08:45;;;;;;;9.45;3.70;;;;;;;17.67;82.12;101733.16;5005717;28;20040;-48
2022/07/01 09:11:37;;;;;;;9.70;3.33;;;;;;;18.00;83.88;101731.97;4999359;28;20036;-48
2022/07/01 09:14:07;;;;;;;8.43;2.60;;;;;;;18.20;79.45;101734.91;4999847;28;20037;-46
2022/07/01 09:16:43;;;;;;;5.57;2.72;;;;;;;18.32;81.71;101729.84;5007360;28;20037;-47
2022/07/01 09:19:09;;;;;;;13.65;3.70;;;;;;;18.38;76.98;101734.47;4997812;28;20034;-49
2022/07/01 09:21:35;;;;;;;5.95;3.15;;;;;;;18.42;80.01;101730.38;4994938;28;20087;-46
2022/07/01 09:24:22;;;;;;;9.52;3.60;;;;;;;18.57;80.12;101724.91;4991881;28;20041;-48
2022/07/01 09:26:52;;;;;;;9.35;3.40;;;;;;;18.71;77.86;101726.72;4985216;28;20025;-48
2022/07/01 09:29:18;;;;;;;9.03;3.20;;;;;;;18.70;79.02;101726.91;5001473;28;20050;-47
2022/07/01 09:31:52;;;;;;;10.77;2.92;;;;;;;18.40;78.78;101733.28;4982795;28;20026;-49
2022/07/01 09:34:17;;;;;;;11.48;3.70;;;;;;;18.26;79.50;101734.13;5015683;28;20057;-48
2022/07/01 09:36:52;;;;;;;9.50;3.97;;;;;;;18.19;79.00;101730.53;5017944;28;20102;-47
2022/07/01 09:39:17;;;;;;;11.98;3.65;;;;;;;18.43;79.26;101738.31;5019366;28;20022;-50
2022/07/01 09:41:42;;;;;;;9.95;3.70;;;;;;;18.57;73.65;101739.28;5018752;28;20392;-48
2022/07/01 09:44:09;;;;;;;6.63;3.38;;;;;;;18.57;74.66;101741.16;5018367;28;20107;-48
2022/07/01 09:46:35;;;;;;;16.30;3.97;;;;;;;18.62;76.34;101747.66;5000840;28;20029;-49
2022/07/01 09:49:01;;;;;;;11.93;3.50;;;;;;;18.80;74.94;101740.94;5019547;28;20029;-50
2022/07/01 09:51:27;;;;;;;9.50;3.30;;;;;;;19.04;74.49;101741.59;5002787;28;20108;-48
2022/07/01 09:53:52;;;;;;;7.35;3.05;;;;;;;19.22;72.31;101741.97;5015810;28;20376;-49
2022/07/01 09:56:21;;;;;;;6.97;3.08;;;;;;;19.21;73.27;101742.97;5000049;28;20017;-45
2022/07/01 09:58:46;;;;;;;11.68;3.00;;;;;;;19.24;72.99;101742.59;5016881;28;20039;-47
2022/07/01 10:01:14;;;;;;;5.30;2.33;;;;;;;19.27;70.96;101752.22;4995177;28;20357;-47
2022/07/01 10:03:41;;;;;;;8.27;3.10;;;;;;;19.29;72.93;101750.97;5014403;28;20476;-50
2022/07/01 10:06:06;;;;;;;7.65;3.10;;;;;;;19.37;73.16;101747.28;5015460;28;20044;-47
2022/07/01 10:08:59;;;;;;;9.60;2.97;;;;;;;19.62;72.73;101754.94;5018936;28;20029;-49
2022/07/01 10:11:42;;;;;;;10.20;2.83;;;;;;;19.87;71.21;101755.31;5017932;28;20776;-46
2022/07/01 10:14:10;;;;;;;9.77;2.83;;;;;;;19.88;69.17;101765.97;5017614;28;20009;-50
2022/07/01 10:16:38;;;;;;;8.45;2.78;;;;;;;19.61;72.07;101766.84;5018281;28;20505;-51
2022/07/01 10:19:26;;;;;;;6.55;2.88;;;;;;;19.89;70.71;101766.81;5017865;28;20021;-45
2022/07/01 10:21:59;;;;;;;8.10;3.05;;;;;;;20.28;67.42;101768.88;4997705;28;20025;-48
2022/07/01 10:24:26;;;;;;;6.50;2.25;;;;;;;20.30;68.43;101766.78;5017419;28;20081;-48
2022/07/01 10:26:52;;;;;;;8.85;2.15;;;;;;;20.26;64.02;101773.66;4999613;28;20087;-47
2022/07/01 10:29:35;;;;;;;6.95;2.10;;;;;;;20.20;67.55;101777.19;5017694;28;20105;-48
2022/07/01 10:32:30;;;;;;;7.28;2.15;;;;;;;20.55;70.03;101787.94;4999980;28;20157;-49
2022/07/01 10:35:06;;;;;;;4.75;2.17;;;;;;;20.91;67.24;101783.25;5004189;28;20393;-45
2022/07/01 10:37:31;;;;;;;8.55;1.80;;;;;;;20.94;64.24;101783.66;5016483;28;20029;-47
2022/07/01 10:40:01;;;;;;;7.60;1.73;;;;;;;20.77;61.55;101787.81;5011722;28;20116;-49
2022/07/01 10:42:32;;;;;;;5.88;1.73;;;;;;;20.26;63.71;101786.38;5016190;28;20040;-50
2022/07/01 10:45:11;;;;;;;5.03;1.73;;;;;;;19.91;66.84;101786.44;4981645;28;20029;-46
2022/07/01 10:47:38;;;;;;;7.28;2.10;;;;;;;19.67;69.73;101785.84;5017586;28;20038;-47
2022/07/01 10:50:07;;;;;;;11.02;2.40;;;;;;;19.73;70.73;101787.75;4981894;28;20018;-46
2022/07/01 10:52:33;;;;;;;7.70;2.08;;;;;;;19.90;71.64;101777.44;5016946;28;20438;-50
2022/07/01 10:55:00;;;;;;;6.55;2.10;;;;;;;19.82;66.32;101783.03;5017360;28;20021;-46
2022/07/01 10:57:30;;;;;;;8.50;2.45;;;;;;;19.79;67.07;101783.44;5017529;28;20025;-49
2022/07/01 11:00:15;;;;;;;8.02;2.30;;;;;;;19.79;68.78;101779.88;5017346;28;20396;-48
2022/07/01 11:02:40;;;;;;;5.47;1.88;;;;;;;19.65;69.68;101776.22;5007608;28;20017;-47
2022/07/01 11:05:11;;;;;;;6.97;2.00;;;;;;;19.57;70.09;101779.94;4998913;28;20031;-49
2022/07/01 11:07:39;;;;;;;7.18;2.38;;;;;;;19.45;68.38;101782.38;4989963;28;20025;-46
2022/07/01 11:10:07;;;;;;;9.60;2.28;;;;;;;19.38;67.71;101776.03;5016930;28;20424;-49
2022/07/01 11:12:33;;;;;;;4.53;2.20;;;;;;;19.55;70.28;101768.44;5017226;28;20025;-46
2022/07/01 11:15:01;;;;;;;6.43;1.90;;;;;;;19.77;69.06;101771.13;4999173;28;20460;-46